createdAt,value
2019-03-03T00:01:07.955Z,3.10
2019-03-03T00:03:36.723Z,3.10
2019-03-03T00:06:05.452Z,3.10
2019-03-03T00:08:34.233Z,3.20
2019-03-03T00:11:03.003Z,3.10
2019-03-03T00:13:31.803Z,3.10
2019-03-03T00:16:00.611Z,3.10
2019-03-03T00:18:29.373Z,3.10
2019-03-03T00:20:58.195Z,3.10
2019-03-03T00:23:27.052Z,3.10
2019-03-03T00:25:55.892Z,3.10
2019-03-03T00:28:24.706Z,3.10
2019-03-03T00:30:53.555Z,3.10
2019-03-03T00:33:22.363Z,3.20
2019-03-03T00:35:51.120Z,3.10
2019-03-03T00:38:27.329Z,3.10
2019-03-03T00:40:57.739Z,3.10
2019-03-03T00:43:36.931Z,3.20
2019-03-03T00:46:16.123Z,3.20
2019-03-03T00:49:01.617Z,3.20
2019-03-03T00:51:48.307Z,3.20
2019-03-03T00:54:21.661Z,3.30
2019-03-03T00:56:52.059Z,3.30
2019-03-03T00:59:34.745Z,3.30
2019-03-03T01:02:07.556Z,3.30
2019-03-03T01:04:37.973Z,3.30
2019-03-03T01:07:17.524Z,3.30
2019-03-03T01:09:53.682Z,3.40
2019-03-03T01:12:24.235Z,3.40
2019-03-03T01:15:06.972Z,3.40
2019-03-03T01:17:37.419Z,3.40
2019-03-03T01:20:10.481Z,3.40
2019-03-03T01:22:56.466Z,3.50
2019-03-03T01:25:25.239Z,3.50
2019-03-03T01:27:54.004Z,3.50
2019-03-03T01:30:22.899Z,3.50
2019-03-03T01:32:51.740Z,3.60
2019-03-03T01:35:20.499Z,3.60
2019-03-03T01:37:49.870Z,3.60
2019-03-03T01:40:18.664Z,3.70
2019-03-03T01:42:47.377Z,3.70
2019-03-03T01:45:16.200Z,3.80
2019-03-03T01:47:45.021Z,3.80
2019-03-03T01:50:14.402Z,3.80
2019-03-03T01:52:43.274Z,3.90
2019-03-03T01:55:12.907Z,4.00
2019-03-03T01:57:41.732Z,4.00
2019-03-03T02:00:25.490Z,4.10
2019-03-03T02:02:55.201Z,4.10
2019-03-03T02:05:23.963Z,4.10
2019-03-03T02:07:52.842Z,4.10
2019-03-03T02:10:25.467Z,4.10
2019-03-03T02:12:54.289Z,4.20
2019-03-03T02:15:23.590Z,4.20
2019-03-03T02:17:52.419Z,4.40
2019-03-03T02:20:21.179Z,4.50
2019-03-03T02:22:50.097Z,4.70
2019-03-03T02:25:18.844Z,4.80
2019-03-03T02:27:47.604Z,4.80
2019-03-03T02:30:19.572Z,4.90
2019-03-03T02:32:48.614Z,4.90
2019-03-03T02:35:17.532Z,4.90
2019-03-03T02:37:46.835Z,5.00
2019-03-03T02:40:19.652Z,5.10
2019-03-03T02:42:48.712Z,5.10
2019-03-03T02:45:18.099Z,5.10
2019-03-03T02:47:46.844Z,5.10
2019-03-03T02:50:16.407Z,5.20
2019-03-03T02:52:45.274Z,5.20
2019-03-03T02:55:17.514Z,5.20
2019-03-03T02:57:46.271Z,5.20
2019-03-03T03:00:22.731Z,5.20
2019-03-03T03:02:54.010Z,5.30
2019-03-03T03:05:44.243Z,5.30
2019-03-03T03:08:14.659Z,5.40
2019-03-03T03:10:51.021Z,5.40
2019-03-03T03:13:27.132Z,5.40
2019-03-03T03:15:57.586Z,5.50
2019-03-03T03:18:30.728Z,5.50
2019-03-03T03:21:03.720Z,5.50
2019-03-03T03:23:34.126Z,5.50
2019-03-03T03:26:19.859Z,5.50
2019-03-03T03:29:05.339Z,5.50
2019-03-03T03:31:35.773Z,5.60
2019-03-03T03:34:08.860Z,5.60
2019-03-03T03:36:57.570Z,5.60
2019-03-03T03:39:40.105Z,5.60
2019-03-03T03:42:16.400Z,5.60
2019-03-03T03:44:46.781Z,5.60
2019-03-03T03:47:22.956Z,5.60
2019-03-03T03:50:01.912Z,5.60
2019-03-03T03:52:35.068Z,5.60
2019-03-03T03:55:15.756Z,5.70
2019-03-03T03:57:46.211Z,5.70
2019-03-03T04:00:16.612Z,5.70
2019-03-03T04:02:59.093Z,5.70
2019-03-03T04:05:45.636Z,5.70
2019-03-03T04:08:16.124Z,5.70
2019-03-03T04:10:46.426Z,5.70
2019-03-03T04:13:16.848Z,5.80
2019-03-03T04:16:03.820Z,5.80
2019-03-03T04:18:48.988Z,5.80
2019-03-03T04:21:31.683Z,5.80
2019-03-03T04:24:07.853Z,5.90
2019-03-03T04:26:41.267Z,5.90
2019-03-03T04:29:11.615Z,5.80
2019-03-03T04:32:00.171Z,5.80
2019-03-03T04:34:33.550Z,5.80
2019-03-03T04:37:06.956Z,5.80
2019-03-03T04:39:37.355Z,5.80
2019-03-03T04:42:07.743Z,5.80
2019-03-03T04:44:41.172Z,5.80
2019-03-03T04:47:20.419Z,5.80
2019-03-03T04:49:50.907Z,5.80
2019-03-03T04:52:21.289Z,5.80
2019-03-03T04:54:57.789Z,5.80
2019-03-03T04:57:44.425Z,5.80
2019-03-03T05:00:23.997Z,5.80
2019-03-03T05:02:56.865Z,5.90
2019-03-03T05:05:30.276Z,5.90
2019-03-03T05:08:14.291Z,5.90
2019-03-03T05:10:57.020Z,5.90
2019-03-03T05:13:27.418Z,5.90
2019-03-03T05:16:07.043Z,5.90
2019-03-03T05:18:37.491Z,5.80
2019-03-03T05:21:06.292Z,5.80
2019-03-03T05:23:35.130Z,5.80
2019-03-03T05:26:03.877Z,5.80
2019-03-03T05:28:32.700Z,5.80
2019-03-03T05:31:01.586Z,5.90
2019-03-03T05:33:30.532Z,5.90
2019-03-03T05:35:59.355Z,6.00
2019-03-03T05:38:28.187Z,6.00
2019-03-03T05:40:56.940Z,6.10
2019-03-03T05:43:25.755Z,6.20
2019-03-03T05:45:54.605Z,6.30
2019-03-03T05:48:23.387Z,6.40
2019-03-03T05:50:52.225Z,6.40
2019-03-03T05:53:21.051Z,6.30
2019-03-03T05:55:49.871Z,6.30
2019-03-03T05:58:18.684Z,6.40
2019-03-03T06:00:47.584Z,6.40
2019-03-03T06:03:16.443Z,6.30
2019-03-03T06:05:47.357Z,6.40
2019-03-03T06:08:15.742Z,6.40
2019-03-03T06:10:44.515Z,6.50
2019-03-03T06:13:13.348Z,6.50
2019-03-03T06:15:42.147Z,6.50
2019-03-03T06:18:10.908Z,6.60
2019-03-03T06:20:39.709Z,6.60
2019-03-03T06:23:08.564Z,6.70
2019-03-03T06:25:37.541Z,6.70
2019-03-03T06:28:06.452Z,6.80
2019-03-03T06:30:35.353Z,6.80
2019-03-03T06:33:04.211Z,6.90
2019-03-03T06:35:33.043Z,6.90
2019-03-03T06:38:01.923Z,7.00
2019-03-03T06:40:30.689Z,7.00
2019-03-03T06:42:59.531Z,7.10
2019-03-03T06:45:28.411Z,7.20
2019-03-03T06:47:57.187Z,7.20
2019-03-03T06:50:25.955Z,7.30
2019-03-03T06:52:54.770Z,7.30
2019-03-03T06:55:23.606Z,7.40
2019-03-03T06:57:52.500Z,7.50
2019-03-03T07:00:21.315Z,7.50
2019-03-03T07:02:50.332Z,7.60
2019-03-03T07:05:19.155Z,7.60
2019-03-03T07:07:49.579Z,7.70
2019-03-03T07:10:18.555Z,7.70
2019-03-03T07:12:47.369Z,7.80
2019-03-03T07:15:17.467Z,7.90
2019-03-03T07:17:46.283Z,7.90
2019-03-03T07:20:15.060Z,7.90
2019-03-03T07:22:43.962Z,7.90
2019-03-03T07:25:14.205Z,8.00
2019-03-03T07:27:43.099Z,8.00
2019-03-03T07:30:14.867Z,8.00
2019-03-03T07:32:54.538Z,8.10
2019-03-03T07:35:23.317Z,8.10
2019-03-03T07:37:52.140Z,8.20
2019-03-03T07:40:20.979Z,8.20
2019-03-03T07:42:49.849Z,8.20
2019-03-03T07:45:18.771Z,8.20
2019-03-03T07:47:47.571Z,8.20
2019-03-03T07:50:16.371Z,8.30
2019-03-03T07:52:45.194Z,8.40
2019-03-03T07:55:14.125Z,8.40
2019-03-03T07:57:43.004Z,8.50
2019-03-03T08:00:17.996Z,8.50
2019-03-03T08:02:46.940Z,8.60
2019-03-03T08:05:15.814Z,8.60
2019-03-03T08:07:44.556Z,8.60
2019-03-03T08:10:16.650Z,8.70
2019-03-03T08:12:45.595Z,8.80
2019-03-03T08:15:18.035Z,8.80
2019-03-03T08:17:46.971Z,8.90
2019-03-03T08:20:16.185Z,8.90
2019-03-03T08:22:45.035Z,9.00
2019-03-03T08:25:14.227Z,9.00
2019-03-03T08:27:43.067Z,9.00
2019-03-03T08:30:16.890Z,9.10
2019-03-03T08:32:45.723Z,9.20
2019-03-03T08:35:29.427Z,9.30
2019-03-03T08:37:58.365Z,9.40
2019-03-03T08:40:27.123Z,9.40
2019-03-03T08:42:57.628Z,9.50
2019-03-03T08:45:27.987Z,9.50
2019-03-03T08:48:15.028Z,9.60
2019-03-03T08:51:00.770Z,9.50
2019-03-03T08:53:34.020Z,9.60
2019-03-03T08:56:09.175Z,9.60
2019-03-03T08:58:46.523Z,9.60
2019-03-03T09:01:35.190Z,9.70
2019-03-03T09:04:05.732Z,9.80
2019-03-03T09:06:39.124Z,9.80
2019-03-03T09:09:25.995Z,9.90
2019-03-03T09:11:56.410Z,9.90
2019-03-03T09:14:43.134Z,10.00
2019-03-03T09:17:16.575Z,10.00
2019-03-03T09:19:56.125Z,10.00
2019-03-03T09:22:28.994Z,10.00
2019-03-03T09:25:17.766Z,10.00
2019-03-03T09:28:04.391Z,10.00
2019-03-03T09:30:40.582Z,10.00
2019-03-03T09:33:17.036Z,10.10
2019-03-03T09:35:47.795Z,10.20
2019-03-03T09:38:18.230Z,10.20
2019-03-03T09:40:48.668Z,10.20
2019-03-03T09:43:22.172Z,10.10
2019-03-03T09:46:08.934Z,10.10
2019-03-03T09:48:51.715Z,10.10
2019-03-03T09:51:22.149Z,10.10
2019-03-03T09:53:55.763Z,10.10
2019-03-03T09:56:26.170Z,10.20
2019-03-03T09:58:59.340Z,10.20
2019-03-03T10:01:41.669Z,10.20
2019-03-03T10:04:28.253Z,10.20
2019-03-03T10:07:07.778Z,10.20
2019-03-03T10:09:46.951Z,10.20
2019-03-03T10:12:20.164Z,10.30
2019-03-03T10:14:53.292Z,10.30
2019-03-03T10:17:23.718Z,10.30
2019-03-03T10:20:10.588Z,10.30
2019-03-03T10:22:46.509Z,10.30
2019-03-03T10:25:29.059Z,10.30
2019-03-03T10:27:59.450Z,10.30
2019-03-03T10:30:46.420Z,10.30
2019-03-03T10:33:19.580Z,10.40
2019-03-03T10:35:49.989Z,10.40
2019-03-03T10:38:20.474Z,10.40
2019-03-03T10:40:50.892Z,10.40
2019-03-03T10:43:24.252Z,10.40
2019-03-03T10:46:03.993Z,10.40
2019-03-03T10:48:46.482Z,10.40
2019-03-03T10:51:25.998Z,10.40
2019-03-03T10:53:59.093Z,10.50
2019-03-03T10:56:45.835Z,10.50
2019-03-03T10:59:32.684Z,10.50
2019-03-03T11:02:06.271Z,10.60
2019-03-03T11:04:45.718Z,10.60
2019-03-03T11:07:18.890Z,10.60
2019-03-03T11:09:55.140Z,10.60
2019-03-03T11:12:34.756Z,10.60
2019-03-03T11:15:18.191Z,10.60
2019-03-03T11:17:53.378Z,10.60
2019-03-03T11:20:38.837Z,10.60
2019-03-03T11:23:15.260Z,10.60
2019-03-03T11:25:57.948Z,10.70
2019-03-03T11:28:31.179Z,10.70
2019-03-03T11:31:01.623Z,10.70
2019-03-03T11:33:48.638Z,10.70
2019-03-03T11:36:21.812Z,10.60
2019-03-03T11:39:10.563Z,10.60
2019-03-03T11:41:41.044Z,10.50
2019-03-03T11:44:11.452Z,10.50
2019-03-03T11:46:57.304Z,10.40
2019-03-03T11:49:36.698Z,10.40
2019-03-03T11:52:20.204Z,10.30
2019-03-03T11:54:56.654Z,10.30
2019-03-03T11:57:27.133Z,10.30
2019-03-03T12:00:00.688Z,10.40
2019-03-03T12:02:53.940Z,10.40
2019-03-03T12:05:22.841Z,10.40
2019-03-03T12:07:56.303Z,10.40
2019-03-03T12:10:26.850Z,10.40
2019-03-03T12:13:03.205Z,10.40
2019-03-03T12:15:36.829Z,10.40
2019-03-03T12:18:07.269Z,10.50
2019-03-03T12:20:49.693Z,10.50
2019-03-03T12:23:20.147Z,10.50
2019-03-03T12:25:50.604Z,10.50
2019-03-03T12:28:36.133Z,10.50
2019-03-03T12:31:06.656Z,10.50
2019-03-03T12:33:39.811Z,10.50
2019-03-03T12:36:28.340Z,10.50
2019-03-03T12:38:58.797Z,10.50
2019-03-03T12:41:29.229Z,10.50
2019-03-03T12:44:05.426Z,10.40
2019-03-03T12:46:44.892Z,10.40
2019-03-03T12:49:18.181Z,10.40
2019-03-03T12:51:48.596Z,10.30
2019-03-03T12:54:19.026Z,10.30
2019-03-03T12:56:52.460Z,10.30
2019-03-03T12:59:25.640Z,10.30
2019-03-03T13:02:11.205Z,10.30
2019-03-03T13:04:44.555Z,10.20
2019-03-03T13:07:14.988Z,10.20
2019-03-03T13:09:48.262Z,10.20
2019-03-03T13:12:21.677Z,10.20
2019-03-03T13:14:54.900Z,10.20
2019-03-03T13:17:32.668Z,10.30
2019-03-03T13:20:08.972Z,10.30
2019-03-03T13:22:45.174Z,10.30
2019-03-03T13:25:32.434Z,10.30
2019-03-03T13:28:21.101Z,10.30
2019-03-03T13:30:57.245Z,10.40
2019-03-03T13:33:27.743Z,10.40
2019-03-03T13:35:58.123Z,10.50
2019-03-03T13:38:34.630Z,10.60
2019-03-03T13:41:05.149Z,10.60
2019-03-03T13:43:34.407Z,10.60
2019-03-03T13:46:03.564Z,10.70
2019-03-03T13:48:32.415Z,10.80
2019-03-03T13:51:01.260Z,10.80
2019-03-03T13:53:30.203Z,10.80
2019-03-03T13:55:59.045Z,10.80
2019-03-03T13:58:27.899Z,10.90
2019-03-03T14:00:56.788Z,10.90
2019-03-03T14:03:25.647Z,10.90
2019-03-03T14:05:54.564Z,10.90
2019-03-03T14:08:23.474Z,10.90
2019-03-03T14:10:52.325Z,10.90
2019-03-03T14:13:22.572Z,10.90
2019-03-03T14:15:51.396Z,10.90
2019-03-03T14:18:20.234Z,10.90
2019-03-03T14:20:49.108Z,10.80
2019-03-03T14:23:18.031Z,10.90
2019-03-03T14:25:46.853Z,10.90
2019-03-03T14:28:15.682Z,10.90
2019-03-03T14:30:44.588Z,10.90
2019-03-03T14:33:13.445Z,10.90
2019-03-03T14:35:42.324Z,11.00
2019-03-03T14:38:11.227Z,11.00
2019-03-03T14:40:41.864Z,11.00
2019-03-03T14:43:10.717Z,11.00
2019-03-03T14:45:39.621Z,11.00
2019-03-03T14:48:08.571Z,11.00
2019-03-03T14:50:37.421Z,11.00
2019-03-03T14:53:06.452Z,11.00
2019-03-03T14:55:35.233Z,11.00
2019-03-03T14:58:04.204Z,11.00
2019-03-03T15:00:34.114Z,11.00
2019-03-03T15:03:04.973Z,11.00
2019-03-03T15:05:33.919Z,10.90
2019-03-03T15:08:02.845Z,10.90
2019-03-03T15:10:31.669Z,10.90
2019-03-03T15:13:00.556Z,11.00
2019-03-03T15:15:37.388Z,10.90
2019-03-03T15:18:06.456Z,10.90
2019-03-03T15:20:35.594Z,10.90
2019-03-03T15:23:04.556Z,10.90
2019-03-03T15:25:33.587Z,10.90
2019-03-03T15:28:02.438Z,10.90
2019-03-03T15:30:31.346Z,10.90
2019-03-03T15:33:01.162Z,10.80
2019-03-03T15:35:30.022Z,10.80
2019-03-03T15:37:58.900Z,10.80
2019-03-03T15:40:28.869Z,10.70
2019-03-03T15:42:57.714Z,10.70
2019-03-03T15:45:28.140Z,10.60
2019-03-03T15:47:57.091Z,10.60
2019-03-03T15:50:26.060Z,10.60
2019-03-03T15:52:56.330Z,10.50
2019-03-03T15:55:26.763Z,10.50
2019-03-03T15:57:55.611Z,10.40
2019-03-03T16:00:37.838Z,10.40
2019-03-03T16:03:06.714Z,10.30
2019-03-03T16:05:35.580Z,10.20
2019-03-03T16:08:04.484Z,10.20
2019-03-03T16:10:35.364Z,10.20
2019-03-03T16:13:04.317Z,10.10
2019-03-03T16:15:33.269Z,10.10
2019-03-03T16:18:02.109Z,10.10
2019-03-03T16:20:30.962Z,10.00
2019-03-03T16:22:59.871Z,10.00
2019-03-03T16:25:28.836Z,10.00
2019-03-03T16:27:57.691Z,9.90
2019-03-03T16:30:26.714Z,9.80
2019-03-03T16:32:55.565Z,9.80
2019-03-03T16:35:24.462Z,9.80
2019-03-03T16:37:53.349Z,9.80
2019-03-03T16:40:26.063Z,9.80
2019-03-03T16:42:54.884Z,9.80
2019-03-03T16:45:23.901Z,9.80
2019-03-03T16:50:26.756Z,9.70
2019-03-03T16:52:55.588Z,9.70
2019-03-03T16:55:24.454Z,9.70
2019-03-03T16:57:53.347Z,9.70
2019-03-03T17:00:28.101Z,9.70
2019-03-03T17:02:57.092Z,9.70
2019-03-03T17:05:26.837Z,9.60
2019-03-03T17:07:55.694Z,9.60
2019-03-03T17:10:24.641Z,9.60
2019-03-03T17:12:53.627Z,9.60
2019-03-03T17:15:26.363Z,9.50
2019-03-03T17:17:55.300Z,9.50
2019-03-03T17:20:24.135Z,9.50
2019-03-03T17:22:52.968Z,9.50
2019-03-03T17:25:26.994Z,9.50
2019-03-03T17:27:55.854Z,9.50
2019-03-03T17:30:25.660Z,9.50
2019-03-03T17:32:55.083Z,9.50
2019-03-03T17:35:23.906Z,9.50
2019-03-03T17:37:52.753Z,9.50
2019-03-03T17:40:27.477Z,9.50
2019-03-03T17:42:56.430Z,9.50
2019-03-03T17:45:25.458Z,9.50
2019-03-03T17:47:55.748Z,9.50
2019-03-03T17:50:28.508Z,9.50
2019-03-03T17:52:57.347Z,9.50
2019-03-03T17:55:26.178Z,9.50
2019-03-03T17:57:55.044Z,9.50
2019-03-03T18:00:26.957Z,9.50
2019-03-03T18:02:55.852Z,9.40
2019-03-03T18:05:24.730Z,9.40
2019-03-03T18:07:53.613Z,9.40
2019-03-03T18:10:22.588Z,9.40
2019-03-03T18:12:51.436Z,9.50
2019-03-03T18:15:20.308Z,9.40
2019-03-03T18:17:50.528Z,9.40
2019-03-03T18:20:22.804Z,9.40
2019-03-03T18:22:51.659Z,9.40
2019-03-03T18:25:21.349Z,9.40
2019-03-03T18:27:50.341Z,9.50
2019-03-03T18:30:27.268Z,9.50
2019-03-03T18:32:56.052Z,9.40
2019-03-03T18:35:24.892Z,9.40
2019-03-03T18:37:53.774Z,9.50
2019-03-03T18:40:23.838Z,9.50
2019-03-03T18:42:52.893Z,9.50
2019-03-03T18:45:23.037Z,9.40
2019-03-03T18:47:51.988Z,9.50
2019-03-03T18:50:28.893Z,9.40
2019-03-03T18:52:59.847Z,9.40
2019-03-03T18:55:28.261Z,9.40
2019-03-03T18:57:57.207Z,9.40
2019-03-03T19:00:28.215Z,9.40
2019-03-03T19:02:58.171Z,9.50
2019-03-03T19:05:27.589Z,9.40
2019-03-03T19:07:56.419Z,9.40
2019-03-03T19:10:27.748Z,9.40
2019-03-03T19:12:56.668Z,9.50
2019-03-03T19:15:25.502Z,9.40
2019-03-03T19:17:54.340Z,9.40
2019-03-03T19:20:23.247Z,9.50
2019-03-03T19:22:52.412Z,9.50
2019-03-03T19:25:21.381Z,9.40
2019-03-03T19:27:50.284Z,9.40
2019-03-03T19:30:26.821Z,9.40
2019-03-03T19:33:06.631Z,9.40
2019-03-03T19:35:35.539Z,9.40
2019-03-03T19:38:05.420Z,9.40
2019-03-03T19:40:34.292Z,9.40
2019-03-03T19:43:03.326Z,9.40
2019-03-03T19:45:43.322Z,9.40
2019-03-03T19:48:12.161Z,9.40
2019-03-03T19:50:41.027Z,9.40
2019-03-03T19:53:10.109Z,9.40
2019-03-03T19:55:38.955Z,9.40
2019-03-03T19:58:07.805Z,9.40
2019-03-03T20:00:41.276Z,9.40
2019-03-03T20:03:12.228Z,9.30
2019-03-03T20:05:40.994Z,9.40
2019-03-03T20:08:13.225Z,9.40
2019-03-03T20:10:42.101Z,9.40
2019-03-03T20:13:11.084Z,9.40
2019-03-03T20:15:40.114Z,9.40
2019-03-03T20:18:10.356Z,9.40
2019-03-03T20:20:39.509Z,9.40
2019-03-03T20:23:08.391Z,9.40
2019-03-03T20:25:37.230Z,9.40
2019-03-03T20:28:06.389Z,9.40
2019-03-03T20:30:35.288Z,9.40
2019-03-03T20:33:04.206Z,9.40
2019-03-03T20:35:33.027Z,9.40
2019-03-03T20:38:01.949Z,9.40
2019-03-03T20:40:31.700Z,9.40
2019-03-03T20:43:00.523Z,9.40
2019-03-03T20:45:33.930Z,9.40
2019-03-03T20:48:02.788Z,9.50
2019-03-03T20:50:31.644Z,9.40
2019-03-03T20:53:00.564Z,9.50
2019-03-03T20:55:31.668Z,9.50
2019-03-03T20:58:00.568Z,9.40
2019-03-03T21:00:33.075Z,9.50
2019-03-03T21:03:01.948Z,9.50
2019-03-03T21:05:30.772Z,9.50
2019-03-03T21:07:59.682Z,9.60
2019-03-03T21:10:30.748Z,9.60
2019-03-03T21:12:59.564Z,9.60
2019-03-03T21:15:28.454Z,9.60
2019-03-03T21:17:57.299Z,9.60
2019-03-03T21:20:26.246Z,9.60
2019-03-03T21:22:55.180Z,9.60
2019-03-03T21:25:23.997Z,9.60
2019-03-03T21:27:52.844Z,9.60
2019-03-03T21:30:30.717Z,9.60
2019-03-03T21:32:59.618Z,9.60
2019-03-03T21:35:28.396Z,9.60
2019-03-03T21:37:58.878Z,9.60
2019-03-03T21:40:28.132Z,9.60
2019-03-03T21:42:57.888Z,9.60
2019-03-03T21:45:32.733Z,9.60
2019-03-03T21:48:01.570Z,9.60
2019-03-03T21:50:30.924Z,9.60
2019-03-03T21:52:59.909Z,9.60
2019-03-03T21:55:28.734Z,9.70
2019-03-03T21:57:57.559Z,9.70
2019-03-03T22:00:29.141Z,9.70
2019-03-03T22:02:58.357Z,9.70
2019-03-03T22:05:27.222Z,9.70
2019-03-03T22:07:56.084Z,9.70
2019-03-03T22:10:30.932Z,9.70
2019-03-03T22:13:00.900Z,9.70
2019-03-03T22:15:29.798Z,9.70
2019-03-03T22:17:58.644Z,9.70
2019-03-03T22:20:27.442Z,9.70
2019-03-03T22:22:56.326Z,9.70
2019-03-03T22:25:25.163Z,9.70
2019-03-03T22:27:53.996Z,9.80
2019-03-03T22:30:23.403Z,9.70
2019-03-03T22:32:52.228Z,9.70
2019-03-03T22:35:21.061Z,9.70
2019-03-03T22:37:49.884Z,9.70
2019-03-03T22:40:25.506Z,9.70
2019-03-03T22:42:54.365Z,9.70
2019-03-03T22:45:24.019Z,9.70
2019-03-03T22:47:52.861Z,9.70
2019-03-03T22:50:22.342Z,9.70
2019-03-03T22:52:51.086Z,9.80
2019-03-03T22:55:20.939Z,9.80
2019-03-03T22:57:49.748Z,9.80
2019-03-03T23:00:44.468Z,9.80
2019-03-03T23:03:16.619Z,9.80
2019-03-03T23:05:57.252Z,9.80
2019-03-03T23:08:31.771Z,9.80
2019-03-03T23:11:12.498Z,9.80
2019-03-03T23:13:56.139Z,9.80
2019-03-03T23:16:33.972Z,9.80
2019-03-03T23:19:23.797Z,9.80
2019-03-03T23:22:15.458Z,9.90
2019-03-03T23:25:11.652Z,9.90
2019-03-03T23:27:40.481Z,9.90
2019-03-03T23:30:09.628Z,9.80
2019-03-03T23:32:38.443Z,9.80
2019-03-03T23:35:07.483Z,9.80
2019-03-03T23:37:36.252Z,9.90
2019-03-03T23:40:06.790Z,9.90
2019-03-03T23:42:35.523Z,9.90
2019-03-03T23:45:09.730Z,9.90
2019-03-03T23:47:39.460Z,10.00
2019-03-03T23:50:09.708Z,9.90
2019-03-03T23:52:38.567Z,10.00
2019-03-03T23:55:09.130Z,10.00
2019-03-03T23:57:37.962Z,10.00
